Nearby METAR Reports

 

KSJC - San Jose, California, USA
Distance from station: NE 9mi, 14km
Updated: Sat, 15-Aug-2020 7:53am CDT
Few Clouds
Few Clouds
 Wind from S
Wind: S 3 mph , 6 km/h
Temperature: 75°F , 24°C
Dew Point: 52°F , 11°C
Humidity: 44%
Barometer: 29.86 inHg , 1011.2 hPa
Clouds: Few Clouds
Visibility: 10 miles , 16 km
Cloud details: Few Clouds 7000 ft
2020/08/15 12:53 KSJC 151253Z 17003KT 10SM FEW070 24/11 A2986 RMK AO2 SLP111 T02390111
KNUQ - Moffett Nas/Mtn, California, USA
Distance from station: N 9mi, 14km
Updated: Sat, 15-Aug-2020 8:35am CDT
Clear
Clear
 Wind from calm
Wind: Calm
Temperature: 70°F , 21°C
Dew Point: 63°F , 17°C
Humidity: 78%
Barometer: 29.88 inHg , 1011.9 hPa
Clouds: Clear
Visibility: 10 miles , 16 km
2020/08/15 13:35 KNUQ 151335Z AUTO 00000KT 10SM CLR 21/17 A2988 RMK AO2
 
KPAO - Palo Alto, California, USA
Distance from station: NNW 14mi, 23km
Updated: Fri, 14-Aug-2020 9:00pm CDT
NOT Current
Clear
Clear
 Wind from NNW
Wind: NNW 8 mph , 13 km/h
Temperature: 97°F , 36°C
Dew Point: 57°F , 14°C
Humidity: 27%
Barometer: 29.78 inHg , 1008.5 hPa
Clouds: Clear
Visibility: 10 miles , 16 km
2020/08/15 02:00 KPAO 150200Z 33007KT 10SM SKC 36/14 A2978 RMK LAST
KRHV - San Jose/Reid, California, USA
Distance from station: ENE 12mi, 19km
Updated: Fri, 14-Aug-2020 11:50pm CDT
NOT Current
Clear
Clear
 Wind from calm
Wind: Calm
Temperature: 88°F , 31°C
Dew Point: 54°F , 12°C
Humidity: 31%
Barometer: 29.85 inHg , 1010.8 hPa
Clouds: Clear
Visibility: 10 miles , 16 km
2020/08/15 04:50 KRHV 150450Z 00000KT 10SM SKC 31/12 A2985 RMK LAST
 
KOAK - Oakland, California, USA
Distance from station: NNW 31mi, 50km
Updated: Sat, 15-Aug-2020 7:53am CDT
Clear
Clear
 Wind from WNW
Wind: WNW 8 mph , 13 km/h
Temperature: 70°F , 21°C
Dew Point: 59°F , 15°C
Humidity: 69%
Barometer: 29.87 inHg , 1011.5 hPa
Clouds: Clear
Visibility: 10 miles , 16 km
2020/08/15 12:53 KOAK 151253Z 30007KT 10SM CLR 21/15 A2987 RMK AO2 SLP113 T02060150
KSQL - San Carlos Airpo, California, USA
Distance from station: NW 21mi, 34km
Updated: Sat, 15-Aug-2020 8:47am CDT
Clear
Clear
 Wind from calm
Wind: Calm
Temperature: 68°F , 20°C
Dew Point: 59°F , 15°C
Humidity: 73%
Barometer: 29.89 inHg , 1012.2 hPa
Clouds: Clear
Visibility: 10 miles , 16 km
2020/08/15 13:47 KSQL 151347Z 00000KT 10SM SKC 20/15 A2989
 
KSFO - San Francisco, California, USA
Distance from station: NW 30mi, 49km
Updated: Sat, 15-Aug-2020 7:56am CDT
Partly cloudy
Partly cloudy
 Wind from WNW
Wind: WNW 9 mph , 15 km/h
Temperature: 66°F , 19°C
Dew Point: 55°F , 13°C
Humidity: 68%
Barometer: 29.86 inHg , 1011.2 hPa
Clouds: Partly cloudy
Visibility: 10 miles , 16 km
Cloud details: Partly cloudy 16000 ft
2020/08/15 12:56 KSFO 151256Z 29008KT 10SM SCT160 19/13 A2986 RMK AO2 SLP111 T01940128
KE16 - San Martin, California, USA
Distance from station: ESE 27mi, 43km
Updated: Sat, 15-Aug-2020 8:30am CDT
Clear
Clear
 Wind from calm
Wind: Calm
Temperature: 66°F , 19°C
Dew Point: 52°F , 11°C
Humidity: 60%
Barometer: 29.91 inHg , 1012.9 hPa
Clouds: Clear
Visibility: 10 miles , 16 km
2020/08/15 13:30 KE16 151330Z AUTO 00000KT 10SM CLR 19/11 A2991 RMK AO2 PWINO PNO
 
KWVI - Watsonville, California, USA
Distance from station: SSE 27mi, 44km
Updated: Sat, 15-Aug-2020 7:53am CDT
Clear
Clear
 Wind from WNW
Wind: WNW 3 mph , 6 km/h
Barometer: 29.88 inHg , 1011.9 hPa
Clouds: Clear
Visibility: 10 miles , 16 km
2020/08/15 12:53 KWVI 151253Z AUTO 30003KT 10SM CLR A2988 RMK AO2 SLPNO $
KHAF - Half Moon Bay, California, USA
Distance from station: WNW 31mi, 50km
Updated: Sat, 15-Aug-2020 8:35am CDT
Clear
Clear
 Wind from NNW
Wind: NNW 3 mph , 6 km/h
Temperature: 57°F , 14°C
Dew Point: 54°F , 12°C
Humidity: 88%
Barometer: 29.91 inHg , 1012.9 hPa
Clouds: Clear
Visibility: 9 miles , 14 km
2020/08/15 13:35 KHAF 151335Z AUTO 34003KT 9SM CLR 14/12 A2991 RMK AO2
 
KHWD - Hayward, California, USA
Distance from station: N 28mi, 44km
Updated: Sat, 15-Aug-2020 7:54am CDT
Clear
Clear
 Wind from NW
Wind: NW 5 mph , 7 km/h
Temperature: 70°F , 21°C
Dew Point: 55°F , 13°C
Humidity: 60%
Barometer: 29.86 inHg , 1011.2 hPa
Clouds: Clear
Visibility: 10 miles , 16 km
2020/08/15 12:54 KHWD 151254Z AUTO 31004KT 10SM CLR 21/13 A2986 RMK AO2 SLP120 T02110133
KLVK - Livermore, California, USA
Distance from station: NNE 31mi, 51km
Updated: Sat, 15-Aug-2020 7:53am CDT
Clear
Clear
 Wind from calm
Wind: Calm
Temperature: 73°F , 23°C
Dew Point: 52°F , 11°C
Humidity: 47%
Barometer: 29.86 inHg , 1011.2 hPa
Clouds: Clear
Visibility: 10 miles , 16 km
2020/08/15 12:53 KLVK 151253Z AUTO 00000KT 10SM CLR 23/11 A2986 RMK AO2 SLP105 T02280106